createdAt,value
2022-11-27T00:02:58.476Z,26.30
2022-11-27T00:06:59.638Z,27.63
2022-11-27T00:11:09.777Z,30.13
2022-11-27T00:15:15.929Z,23.73
2022-11-27T00:19:14.127Z,27.13
2022-11-27T00:23:15.255Z,24.63
2022-11-27T00:27:16.334Z,33.73
2022-11-27T00:31:20.885Z,21.43
2022-11-27T00:35:22.271Z,23.70
2022-11-27T00:39:23.443Z,23.47
2022-11-27T00:43:24.670Z,22.27
2022-11-27T00:47:25.762Z,23.03
2022-11-27T00:51:28.327Z,17.63
2022-11-27T00:55:29.518Z,19.30
2022-11-27T00:59:31.085Z,18.13
2022-11-27T01:03:33.412Z,20.72
2022-11-27T01:07:34.770Z,26.83
2022-11-27T01:11:35.990Z,20.73
2022-11-27T01:15:37.078Z,20.50
2022-11-27T01:19:38.270Z,21.40
2022-11-27T01:24:00.022Z,21.30
2022-11-27T01:28:01.277Z,27.70
2022-11-27T01:32:02.668Z,20.00
2022-11-27T01:36:06.106Z,16.23
2022-11-27T01:40:08.559Z,20.07
2022-11-27T01:44:28.584Z,22.20
2022-11-27T01:48:29.896Z,21.83
2022-11-27T01:52:34.912Z,18.47
2022-11-27T01:56:36.930Z,20.20
2022-11-27T02:00:38.690Z,18.57
2022-11-27T02:04:39.952Z,23.73
2022-11-27T02:08:42.103Z,20.07
2022-11-27T02:12:55.905Z,23.70
2022-11-27T02:17:00.878Z,23.03
2022-11-27T02:21:22.560Z,20.80
2022-11-27T02:25:52.084Z,25.47
2022-11-27T02:29:56.867Z,28.33
2022-11-27T02:34:01.918Z,25.33
2022-11-27T02:38:09.860Z,30.57
2022-11-27T02:42:19.525Z,27.00
2022-11-27T02:46:21.726Z,25.03
2022-11-27T02:50:25.217Z,33.33
2022-11-27T02:54:30.780Z,31.97
2022-11-27T02:58:34.042Z,32.77
2022-11-27T03:02:39.082Z,28.07
2022-11-27T03:06:43.909Z,29.60
2022-11-27T03:10:58.254Z,28.67
2022-11-27T03:14:59.537Z,32.37
2022-11-27T03:19:10.141Z,31.23
2022-11-27T03:23:11.416Z,32.07
2022-11-27T03:27:14.708Z,34.33
2022-11-27T03:31:16.345Z,30.57
2022-11-27T03:35:21.294Z,29.27
2022-11-27T03:39:24.081Z,39.67
2022-11-27T03:43:29.099Z,33.10
2022-11-27T03:47:43.017Z,32.63
2022-11-27T03:51:51.120Z,31.30
2022-11-27T03:56:04.311Z,28.17
2022-11-27T04:00:07.657Z,35.57
2022-11-27T04:04:08.991Z,36.93
2022-11-27T04:08:10.327Z,32.00
2022-11-27T04:12:11.562Z,27.87
2022-11-27T04:16:12.895Z,27.37
2022-11-27T04:20:14.843Z,30.43
2022-11-27T04:24:16.305Z,30.73
2022-11-27T04:28:17.760Z,25.10
2022-11-27T04:32:18.814Z,36.03
2022-11-27T04:36:20.003Z,33.40
2022-11-27T04:40:21.333Z,38.93
2022-11-27T04:44:22.811Z,36.43
2022-11-27T04:48:24.145Z,45.27
2022-11-27T04:52:25.299Z,36.87
2022-11-27T04:56:26.639Z,29.03
2022-11-27T05:00:27.777Z,33.33
2022-11-27T05:04:29.420Z,42.63
2022-11-27T05:08:32.279Z,42.43
2022-11-27T05:12:33.478Z,58.40
2022-11-27T05:16:34.905Z,34.47
2022-11-27T05:20:36.143Z,45.73
2022-11-27T05:24:37.646Z,39.03
2022-11-27T05:28:39.027Z,38.43
2022-11-27T05:32:40.099Z,34.40
2022-11-27T05:36:41.701Z,36.60
2022-11-27T05:40:42.879Z,36.33
2022-11-27T05:44:44.100Z,36.53
2022-11-27T05:48:45.367Z,46.00
2022-11-27T05:52:46.703Z,37.80
2022-11-27T05:56:47.792Z,37.93
2022-11-27T06:00:49.005Z,39.27
2022-11-27T06:04:50.264Z,34.17
2022-11-27T06:08:51.635Z,35.33
2022-11-27T06:12:52.895Z,39.83
2022-11-27T06:16:54.218Z,36.97
2022-11-27T06:20:55.474Z,31.33
2022-11-27T06:24:56.725Z,34.47
2022-11-27T06:28:59.531Z,34.27
2022-11-27T06:33:00.796Z,35.07
2022-11-27T06:37:02.056Z,35.63
2022-11-27T06:41:09.328Z,37.27
2022-11-27T06:45:11.031Z,44.70
2022-11-27T06:49:12.211Z,45.00
2022-11-27T06:53:13.436Z,53.60
2022-11-27T06:57:14.817Z,44.67
2022-11-27T07:01:17.043Z,51.40
2022-11-27T07:05:18.409Z,46.37
2022-11-27T07:09:19.774Z,44.77
2022-11-27T07:13:21.106Z,44.57
2022-11-27T07:17:22.331Z,47.23
2022-11-27T07:21:24.421Z,48.97
2022-11-27T07:25:25.716Z,43.70
2022-11-27T07:29:26.766Z,48.53
2022-11-27T07:33:27.884Z,43.73
2022-11-27T07:37:32.955Z,35.13
2022-11-27T07:41:34.434Z,36.97
2022-11-27T07:45:35.667Z,40.13
2022-11-27T07:49:36.784Z,33.87
2022-11-27T07:53:39.705Z,35.57
2022-11-27T07:57:41.890Z,46.60
2022-11-27T08:01:44.358Z,44.30
2022-11-27T08:05:45.803Z,40.57
2022-11-27T08:09:47.013Z,41.87
2022-11-27T08:13:49.569Z,41.77
2022-11-27T08:17:50.848Z,38.43
2022-11-27T08:21:52.306Z,32.30
2022-11-27T08:25:53.433Z,35.87
2022-11-27T08:29:54.677Z,37.33
2022-11-27T08:33:55.728Z,38.60
2022-11-27T08:37:56.876Z,39.00
2022-11-27T08:41:58.237Z,31.03
2022-11-27T08:45:59.713Z,31.00
2022-11-27T08:50:01.057Z,33.50
2022-11-27T08:54:02.664Z,33.70
2022-11-27T08:58:04.425Z,30.17
2022-11-27T09:02:06.027Z,33.37
2022-11-27T09:06:09.275Z,31.13
2022-11-27T09:10:10.826Z,27.97
2022-11-27T09:14:12.248Z,29.63
2022-11-27T09:18:13.290Z,26.77
2022-11-27T09:22:14.498Z,30.83
2022-11-27T09:26:16.702Z,28.30
2022-11-27T09:30:18.203Z,28.87
2022-11-27T09:34:19.775Z,27.17
2022-11-27T09:38:21.316Z,29.97
2022-11-27T09:42:29.171Z,29.20
2022-11-27T09:46:36.773Z,27.03
2022-11-27T09:50:42.007Z,29.83
2022-11-27T09:54:56.666Z,34.43
2022-11-27T09:58:59.822Z,29.97
2022-11-27T10:03:01.182Z,26.57
2022-11-27T10:07:12.514Z,33.63
2022-11-27T10:11:23.486Z,26.77
2022-11-27T10:15:49.667Z,24.07
2022-11-27T10:19:54.729Z,27.07
2022-11-27T10:24:05.284Z,29.30
2022-11-27T10:28:25.335Z,33.10
2022-11-27T10:32:54.676Z,32.73
2022-11-27T10:36:42.973Z,22.47
2022-11-27T10:41:09.808Z,24.20
2022-11-27T10:45:33.923Z,21.63
2022-11-27T10:49:38.708Z,23.47
2022-11-27T10:53:42.612Z,20.63
2022-11-27T10:58:02.394Z,21.60
2022-11-27T11:02:05.060Z,20.60
2022-11-27T11:06:20.669Z,17.43
2022-11-27T11:10:28.631Z,19.70
2022-11-27T11:14:29.799Z,19.23
2022-11-27T11:18:34.016Z,22.80
2022-11-27T11:22:35.173Z,21.33
2022-11-27T11:26:45.881Z,17.10
2022-11-27T11:30:59.764Z,16.07
2022-11-27T11:35:04.668Z,16.47
2022-11-27T11:39:06.475Z,24.63
2022-11-27T11:43:23.631Z,18.57
2022-11-27T11:47:27.304Z,21.37
2022-11-27T11:51:58.002Z,23.27
2022-11-27T11:56:19.484Z,15.13
2022-11-27T12:00:28.078Z,17.53
2022-11-27T12:04:54.148Z,14.83
2022-11-27T12:09:11.192Z,16.63
2022-11-27T12:13:31.689Z,16.37
2022-11-27T12:17:46.482Z,16.30
2022-11-27T12:22:08.172Z,15.80
2022-11-27T12:26:31.511Z,14.50
2022-11-27T12:30:57.885Z,16.53
2022-11-27T12:35:21.073Z,15.13
2022-11-27T12:39:34.419Z,18.07
2022-11-27T12:43:42.458Z,13.63
2022-11-27T12:47:47.519Z,11.53
2022-11-27T12:52:01.640Z,12.27
2022-11-27T12:56:20.377Z,11.33
2022-11-27T13:00:24.490Z,12.07
2022-11-27T13:04:42.060Z,15.40
2022-11-27T13:08:56.413Z,11.23
2022-11-27T13:13:09.740Z,12.27
2022-11-27T13:17:15.975Z,15.33
2022-11-27T13:21:22.183Z,12.27
2022-11-27T13:25:24.551Z,15.17
2022-11-27T13:29:32.508Z,13.57
2022-11-27T13:33:40.420Z,17.60
2022-11-27T13:37:41.761Z,20.73
2022-11-27T13:41:43.416Z,13.83
2022-11-27T13:45:44.728Z,20.63
2022-11-27T13:49:49.701Z,15.00
2022-11-27T13:53:51.395Z,13.50
2022-11-27T13:57:54.644Z,14.20
2022-11-27T14:01:59.076Z,13.87
2022-11-27T14:06:00.358Z,13.90
2022-11-27T14:10:08.073Z,18.13
2022-11-27T14:14:24.556Z,16.00
2022-11-27T14:18:27.691Z,13.03
2022-11-27T14:23:09.885Z,12.90
2022-11-27T14:26:47.946Z,13.37
2022-11-27T14:30:51.656Z,18.30
2022-11-27T14:34:53.102Z,13.23
2022-11-27T14:38:54.367Z,13.00
2022-11-27T14:42:59.298Z,11.67
2022-11-27T14:47:03.109Z,12.57
2022-11-27T14:51:04.476Z,9.87
2022-11-27T14:55:09.689Z,9.53
2022-11-27T14:59:17.402Z,12.10
2022-11-27T15:03:18.972Z,11.20
2022-11-27T15:07:24.525Z,10.67
2022-11-27T15:11:54.042Z,9.33
2022-11-27T15:15:34.352Z,12.17
2022-11-27T15:19:36.836Z,10.50
2022-11-27T15:23:41.837Z,11.53
2022-11-27T15:27:46.432Z,9.20
2022-11-27T15:31:52.029Z,10.27
2022-11-27T15:35:55.206Z,8.97
2022-11-27T15:39:58.549Z,9.17
2022-11-27T15:43:59.666Z,9.93
2022-11-27T15:48:02.203Z,9.70
2022-11-27T15:52:03.669Z,10.00
2022-11-27T15:56:05.985Z,11.43
2022-11-27T16:00:11.220Z,11.27
2022-11-27T16:04:12.488Z,10.33
2022-11-27T16:08:13.843Z,12.90
2022-11-27T16:12:15.002Z,15.58
2022-11-27T16:16:16.368Z,18.63
2022-11-27T16:20:17.897Z,13.53
2022-11-27T16:24:19.240Z,12.63
2022-11-27T16:28:20.313Z,11.73
2022-11-27T16:32:21.448Z,12.93
2022-11-27T16:36:23.775Z,13.03
2022-11-27T16:40:24.943Z,13.27
2022-11-27T16:44:26.215Z,12.37
2022-11-27T16:48:27.647Z,20.07
2022-11-27T16:52:28.948Z,15.27
2022-11-27T16:56:32.051Z,15.53
2022-11-27T17:00:33.239Z,14.93
2022-11-27T17:04:34.685Z,15.23
2022-11-27T17:08:36.470Z,24.00
2022-11-27T17:12:37.678Z,18.17
2022-11-27T17:16:40.763Z,17.20
2022-11-27T17:20:42.683Z,20.20
2022-11-27T17:24:44.130Z,17.17
2022-11-27T17:28:45.817Z,17.10
2022-11-27T17:32:46.876Z,18.73
2022-11-27T17:36:49.826Z,20.93
2022-11-27T17:40:51.135Z,20.20
2022-11-27T17:44:52.263Z,21.90
2022-11-27T17:48:55.294Z,23.53
2022-11-27T17:52:56.347Z,21.37
2022-11-27T17:56:57.645Z,20.43
2022-11-27T18:00:59.549Z,22.50
2022-11-27T18:05:00.827Z,21.83
2022-11-27T18:09:03.095Z,22.27
2022-11-27T18:13:04.315Z,22.07
2022-11-27T18:17:06.658Z,25.30
2022-11-27T18:21:15.322Z,24.37
2022-11-27T18:25:13.919Z,21.43
2022-11-27T18:29:15.169Z,23.67
2022-11-27T18:33:16.398Z,21.57
2022-11-27T18:37:17.807Z,24.90
2022-11-27T18:41:21.411Z,28.60
2022-11-27T18:45:33.479Z,21.23
2022-11-27T18:49:25.894Z,20.43
2022-11-27T18:53:27.091Z,18.83
2022-11-27T18:57:28.517Z,22.93
2022-11-27T19:01:38.129Z,21.93
2022-11-27T19:05:35.831Z,20.47
2022-11-27T19:09:37.183Z,19.33
2022-11-27T19:13:39.403Z,18.37
2022-11-27T19:17:40.552Z,18.83
2022-11-27T19:21:41.804Z,18.93
2022-11-27T19:25:44.053Z,20.93
2022-11-27T19:29:45.846Z,17.70
2022-11-27T19:33:51.803Z,20.10
2022-11-27T19:37:53.090Z,17.87
2022-11-27T19:41:54.417Z,20.33
2022-11-27T19:45:56.099Z,20.80
2022-11-27T19:49:57.297Z,21.03
2022-11-27T19:54:01.207Z,20.47
2022-11-27T19:58:03.573Z,22.17
2022-11-27T20:02:05.325Z,18.07
2022-11-27T20:06:10.912Z,19.23
2022-11-27T20:10:12.262Z,19.73
2022-11-27T20:14:14.187Z,19.83
2022-11-27T20:18:15.552Z,23.53
2022-11-27T20:22:17.080Z,18.50
2022-11-27T20:26:21.940Z,18.70
2022-11-27T20:30:23.440Z,21.03
2022-11-27T20:34:26.098Z,21.67
2022-11-27T20:38:27.517Z,28.23
2022-11-27T20:42:28.714Z,22.33
2022-11-27T20:46:32.086Z,21.93
2022-11-27T20:50:34.638Z,22.87
2022-11-27T20:54:36.478Z,29.70
2022-11-27T20:58:39.401Z,31.07
2022-11-27T21:02:41.132Z,24.70
2022-11-27T21:06:44.243Z,22.80
2022-11-27T21:10:45.833Z,20.00
2022-11-27T21:14:47.341Z,27.13
2022-11-27T21:18:54.288Z,21.67
2022-11-27T21:22:55.730Z,22.57
2022-11-27T21:26:57.392Z,27.70
2022-11-27T21:31:16.534Z,77.40
2022-11-27T21:35:17.890Z,23.80
2022-11-27T21:39:20.616Z,21.53
2022-11-27T21:43:23.023Z,20.80
2022-11-27T21:47:24.486Z,23.03
2022-11-27T21:51:27.262Z,20.87
2022-11-27T21:55:29.032Z,20.60
2022-11-27T21:59:30.113Z,21.40
2022-11-27T22:03:32.281Z,21.20
2022-11-27T22:07:34.609Z,22.13
2022-11-27T22:11:36.318Z,21.30
2022-11-27T22:15:37.607Z,21.23
2022-11-27T22:19:40.591Z,21.60
2022-11-27T22:23:42.250Z,22.10
2022-11-27T22:27:43.545Z,21.20
2022-11-27T22:31:44.663Z,23.37
2022-11-27T22:35:45.751Z,22.23
2022-11-27T22:39:47.237Z,21.00
2022-11-27T22:43:48.896Z,21.43
2022-11-27T22:47:50.105Z,21.87
2022-11-27T22:51:51.183Z,22.50
2022-11-27T22:55:52.530Z,21.87
2022-11-27T22:59:53.734Z,21.37
2022-11-27T23:03:55.233Z,20.47
2022-11-27T23:07:56.608Z,21.90
2022-11-27T23:11:58.382Z,20.60
2022-11-27T23:16:07.475Z,21.27
2022-11-27T23:20:09.246Z,22.13
2022-11-27T23:24:14.626Z,21.17
2022-11-27T23:28:15.964Z,21.83
2022-11-27T23:32:17.184Z,20.67
2022-11-27T23:36:18.353Z,21.63
2022-11-27T23:40:19.962Z,21.83
2022-11-27T23:44:21.320Z,20.80
2022-11-27T23:48:22.358Z,22.33
2022-11-27T23:52:23.724Z,20.97
2022-11-27T23:56:27.922Z,21.73
